Stenlille, Denmark
Current Conditions -  °F | °C
As of 11:20 PM on Friday 24 Oct 2014 (Local Time) from EKRK Reporting Station
Broken Clouds Broken Clouds  
Wind Chill: 52°   Ceiling: 3700
Heat Index: 52°   Visibility: 4mi
Dew Point: 48°   Wind: 16mph
Humidity: 88%   Direction: 180°S
Pressure: 30.06"   Gusts: NA
Location:  55.54°N, 11.59°E
Report Text: EKRK 242120Z AUTO 18014KT 7000NDV FEW010/// BKN037///11/09 Q1018
Loading
Personal Weather Stations






























Interactive Weather Map
Tropical Storm Tracking
New forecast layout! Learn more

10-Day Weather Forecast

Advertisements
Track Severe Weather on mobile